createdAt,value
2019-03-29T00:00:22.910Z,1030.96
2019-03-29T00:01:23.511Z,1031.00
2019-03-29T00:02:22.843Z,1030.98
2019-03-29T00:03:22.823Z,1031.02
2019-03-29T00:04:22.810Z,1030.98
2019-03-29T00:05:22.778Z,1030.99
2019-03-29T00:06:22.782Z,1031.00
2019-03-29T00:07:22.738Z,1030.98
2019-03-29T00:08:22.725Z,1030.98
2019-03-29T00:09:22.702Z,1030.99
2019-03-29T00:10:22.686Z,1030.96
2019-03-29T00:11:22.662Z,1030.93
2019-03-29T00:12:22.666Z,1030.92
2019-03-29T00:13:23.213Z,1030.93
2019-03-29T00:14:23.624Z,1030.98
2019-03-29T00:15:22.600Z,1030.98
2019-03-29T00:16:22.565Z,1030.96
2019-03-29T00:17:22.540Z,1030.97
2019-03-29T00:18:22.537Z,1030.96
2019-03-29T00:19:22.499Z,1030.97
2019-03-29T00:20:22.481Z,1031.01
2019-03-29T00:21:22.461Z,1030.98
2019-03-29T00:22:22.447Z,1030.93
2019-03-29T00:23:23.013Z,1030.94
2019-03-29T00:24:22.419Z,1030.92
2019-03-29T00:27:04.480Z,1030.89
2019-03-29T00:28:04.533Z,1030.86
2019-03-29T00:29:04.437Z,1030.92
2019-03-29T00:30:04.421Z,1030.89
2019-03-29T00:31:04.399Z,1030.88
2019-03-29T00:32:04.367Z,1030.88
2019-03-29T00:33:04.346Z,1030.83
2019-03-29T00:34:04.324Z,1030.80
2019-03-29T00:35:04.307Z,1030.80
2019-03-29T00:36:04.284Z,1030.81
2019-03-29T00:37:04.289Z,1030.81
2019-03-29T00:38:04.263Z,1030.81
2019-03-29T00:39:04.228Z,1030.79
2019-03-29T00:40:04.203Z,1030.78
2019-03-29T00:41:04.183Z,1030.75
2019-03-29T00:42:04.191Z,1030.75
2019-03-29T00:43:04.145Z,1030.71
2019-03-29T00:44:04.128Z,1030.77
2019-03-29T00:45:04.107Z,1030.72
2019-03-29T00:46:04.087Z,1030.70
2019-03-29T00:47:04.126Z,1030.70
2019-03-29T00:48:04.062Z,1030.66
2019-03-29T00:49:04.027Z,1030.62
2019-03-29T00:50:04.029Z,1030.61
2019-03-29T00:51:03.986Z,1030.62
2019-03-29T00:52:03.969Z,1030.61
2019-03-29T00:53:03.946Z,1030.59
2019-03-29T00:54:03.928Z,1030.59
2019-03-29T00:55:03.908Z,1030.58
2019-03-29T00:56:03.897Z,1030.60
2019-03-29T00:57:04.877Z,1030.52
2019-03-29T00:58:03.843Z,1030.49
2019-03-29T00:59:03.846Z,1030.48
2019-03-29T01:00:03.807Z,1030.48
2019-03-29T01:01:03.785Z,1030.44
2019-03-29T01:02:03.771Z,1030.44
2019-03-29T01:03:03.753Z,1030.40
2019-03-29T01:04:03.728Z,1030.43
2019-03-29T01:05:03.718Z,1030.37
2019-03-29T01:06:03.686Z,1030.35
2019-03-29T01:07:04.824Z,1030.33
2019-03-29T01:08:08.120Z,1030.32
2019-03-29T01:09:04.282Z,1030.32
2019-03-29T01:10:03.602Z,1030.30
2019-03-29T01:11:03.602Z,1030.27
2019-03-29T01:12:03.568Z,1030.28
2019-03-29T01:13:03.547Z,1030.28
2019-03-29T01:14:03.521Z,1030.25
2019-03-29T01:15:03.523Z,1030.23
2019-03-29T01:16:03.483Z,1030.24
2019-03-29T01:17:03.463Z,1030.27
2019-03-29T01:18:03.448Z,1030.25
2019-03-29T01:19:04.039Z,1030.24
2019-03-29T01:20:03.421Z,1030.25
2019-03-29T01:21:03.378Z,1030.26
2019-03-29T01:22:03.363Z,1030.26
2019-03-29T01:23:03.339Z,1030.28
2019-03-29T01:24:03.333Z,1030.26
2019-03-29T01:25:03.320Z,1030.27
2019-03-29T01:26:03.283Z,1030.26
2019-03-29T01:27:03.266Z,1030.30
2019-03-29T01:28:03.239Z,1030.23
2019-03-29T01:29:03.985Z,1030.24
2019-03-29T01:30:03.204Z,1030.25
2019-03-29T01:31:03.192Z,1030.24
2019-03-29T01:32:03.157Z,1030.22
2019-03-29T01:33:04.058Z,1030.24
2019-03-29T01:34:03.123Z,1030.22
2019-03-29T01:35:03.097Z,1030.25
2019-03-29T01:36:03.102Z,1030.25
2019-03-29T01:37:03.056Z,1030.28
2019-03-29T01:38:03.036Z,1030.26
2019-03-29T01:39:03.025Z,1030.25
2019-03-29T01:40:03.004Z,1030.25
2019-03-29T01:41:02.982Z,1030.24
2019-03-29T01:42:02.977Z,1030.23
2019-03-29T01:43:02.939Z,1030.21
2019-03-29T01:44:02.941Z,1030.21
2019-03-29T01:45:02.913Z,1030.17
2019-03-29T01:46:04.517Z,1030.13
2019-03-29T01:47:03.902Z,1030.12
2019-03-29T01:48:03.516Z,1030.11
2019-03-29T01:49:02.916Z,1030.09
2019-03-29T01:50:02.792Z,1030.08
2019-03-29T01:51:02.799Z,1030.11
2019-03-29T01:52:02.752Z,1030.08
2019-03-29T01:53:02.730Z,1030.10
2019-03-29T01:54:04.088Z,1030.11
2019-03-29T01:55:02.690Z,1030.09
2019-03-29T01:56:02.669Z,1030.06
2019-03-29T01:57:02.667Z,1030.03
2019-03-29T01:58:02.630Z,1030.00
2019-03-29T01:59:02.615Z,1030.02
2019-03-29T02:00:02.589Z,1030.04
2019-03-29T02:01:05.514Z,1029.97
2019-03-29T02:02:02.550Z,1029.89
2019-03-29T02:03:02.548Z,1029.89
2019-03-29T02:04:05.597Z,1029.86
2019-03-29T02:05:02.484Z,1029.88
2019-03-29T02:06:03.017Z,1029.81
2019-03-29T02:07:02.445Z,1029.85
2019-03-29T02:08:02.427Z,1029.81
2019-03-29T02:09:02.420Z,1029.79
2019-03-29T02:10:02.385Z,1029.81
2019-03-29T02:11:02.376Z,1029.82
2019-03-29T02:12:02.340Z,1029.82
2019-03-29T02:13:02.320Z,1029.81
2019-03-29T02:14:02.294Z,1029.78
2019-03-29T02:15:02.311Z,1029.80
2019-03-29T02:16:02.263Z,1029.80
2019-03-29T02:17:02.235Z,1029.81
2019-03-29T02:18:02.217Z,1029.80
2019-03-29T02:19:02.197Z,1029.81
2019-03-29T02:20:02.173Z,1029.81
2019-03-29T02:21:02.170Z,1029.79
2019-03-29T02:22:02.141Z,1029.81
2019-03-29T02:23:02.126Z,1029.78
2019-03-29T02:24:02.115Z,1029.76
2019-03-29T02:25:02.070Z,1029.72
2019-03-29T02:26:02.045Z,1029.73
2019-03-29T02:27:02.030Z,1029.74
2019-03-29T02:28:02.005Z,1029.74
2019-03-29T02:29:01.986Z,1029.74
2019-03-29T02:30:04.357Z,1029.74
2019-03-29T02:31:01.958Z,1029.76
2019-03-29T02:32:01.948Z,1029.72
2019-03-29T02:33:01.902Z,1029.70
2019-03-29T02:34:01.877Z,1029.69
2019-03-29T02:35:01.875Z,1029.72
2019-03-29T02:36:01.853Z,1029.70
2019-03-29T02:37:02.290Z,1029.74
2019-03-29T02:38:01.815Z,1029.71
2019-03-29T02:39:02.591Z,1029.75
2019-03-29T02:40:01.778Z,1029.76
2019-03-29T02:41:01.734Z,1029.72
2019-03-29T02:42:01.736Z,1029.71
2019-03-29T02:43:02.525Z,1029.66
2019-03-29T02:44:01.674Z,1029.68
2019-03-29T02:45:03.391Z,1029.68
2019-03-29T02:46:01.670Z,1029.65
2019-03-29T02:47:01.611Z,1029.65
2019-03-29T02:48:03.522Z,1029.68
2019-03-29T02:49:01.612Z,1029.68
2019-03-29T02:50:02.058Z,1029.69
2019-03-29T02:51:01.563Z,1029.63
2019-03-29T02:52:01.510Z,1029.61
2019-03-29T02:53:01.488Z,1029.65
2019-03-29T02:54:01.481Z,1029.67
2019-03-29T02:55:01.450Z,1029.66
2019-03-29T02:56:01.422Z,1029.69
2019-03-29T02:57:01.422Z,1029.67
2019-03-29T02:58:01.386Z,1029.69
2019-03-29T02:59:01.375Z,1029.69
2019-03-29T03:00:01.346Z,1029.66
2019-03-29T03:02:43.517Z,1029.66
2019-03-29T03:03:43.476Z,1029.65
2019-03-29T03:04:43.456Z,1029.61
2019-03-29T03:05:43.432Z,1029.61
2019-03-29T03:06:43.423Z,1029.60
2019-03-29T03:07:43.396Z,1029.60
2019-03-29T03:08:43.395Z,1029.63
2019-03-29T03:09:43.350Z,1029.63
2019-03-29T03:10:43.330Z,1029.65
2019-03-29T03:11:43.389Z,1029.65
2019-03-29T03:12:43.283Z,1029.59
2019-03-29T03:13:43.261Z,1029.63
2019-03-29T03:14:44.023Z,1029.62
2019-03-29T03:15:43.219Z,1029.59
2019-03-29T03:16:43.205Z,1029.58
2019-03-29T03:17:43.178Z,1029.55
2019-03-29T03:18:43.156Z,1029.57
2019-03-29T03:19:43.135Z,1029.57
2019-03-29T03:20:43.209Z,1029.56
2019-03-29T03:21:43.095Z,1029.55
2019-03-29T03:22:43.147Z,1029.51
2019-03-29T03:23:43.052Z,1029.54
2019-03-29T03:24:43.037Z,1029.57
2019-03-29T03:25:44.034Z,1029.54
2019-03-29T03:26:42.989Z,1029.52
2019-03-29T03:27:43.033Z,1029.53
2019-03-29T03:28:42.954Z,1029.53
2019-03-29T03:29:42.931Z,1029.56
2019-03-29T03:30:42.937Z,1029.56
2019-03-29T03:31:42.910Z,1029.56
2019-03-29T03:32:42.938Z,1029.53
2019-03-29T03:33:42.844Z,1029.59
2019-03-29T03:34:42.829Z,1029.59
2019-03-29T03:35:42.803Z,1029.57
2019-03-29T03:36:42.786Z,1029.59
2019-03-29T03:37:42.793Z,1029.59
2019-03-29T03:38:42.761Z,1029.60
2019-03-29T03:39:42.723Z,1029.64
2019-03-29T03:40:42.702Z,1029.63
2019-03-29T03:41:42.696Z,1029.63
2019-03-29T03:42:42.659Z,1029.59
2019-03-29T03:43:42.640Z,1029.63
2019-03-29T03:44:42.627Z,1029.63
2019-03-29T03:45:42.601Z,1029.59
2019-03-29T03:46:42.601Z,1029.58
2019-03-29T03:47:42.559Z,1029.63
2019-03-29T03:48:42.557Z,1029.58
2019-03-29T03:49:42.522Z,1029.59
2019-03-29T03:50:42.643Z,1029.59
2019-03-29T03:51:42.496Z,1029.60
2019-03-29T03:52:42.451Z,1029.61
2019-03-29T03:53:42.452Z,1029.57
2019-03-29T03:54:42.410Z,1029.59
2019-03-29T03:55:42.411Z,1029.60
2019-03-29T03:56:42.501Z,1029.61
2019-03-29T03:57:42.348Z,1029.59
2019-03-29T03:58:42.345Z,1029.60
2019-03-29T03:59:42.341Z,1029.65
2019-03-29T04:00:42.328Z,1029.62
2019-03-29T04:01:42.271Z,1029.66
2019-03-29T04:02:42.321Z,1029.68
2019-03-29T04:03:42.226Z,1029.67
2019-03-29T04:04:42.209Z,1029.66
2019-03-29T04:05:42.205Z,1029.65
2019-03-29T04:06:42.165Z,1029.68
2019-03-29T04:07:42.142Z,1029.64
2019-03-29T04:08:42.123Z,1029.67
2019-03-29T04:09:50.035Z,1029.68
2019-03-29T04:10:42.408Z,1029.67
2019-03-29T04:11:42.065Z,1029.65
2019-03-29T04:12:42.052Z,1029.69
2019-03-29T04:13:42.020Z,1029.70
2019-03-29T04:14:42.008Z,1029.70
2019-03-29T04:15:41.978Z,1029.69
2019-03-29T04:16:41.997Z,1029.68
2019-03-29T04:17:41.937Z,1029.63
2019-03-29T04:18:41.920Z,1029.59
2019-03-29T04:19:41.897Z,1029.61
2019-03-29T04:20:41.884Z,1029.57
2019-03-29T04:21:41.854Z,1029.64
2019-03-29T04:22:41.852Z,1029.62
2019-03-29T04:23:41.816Z,1029.63
2019-03-29T04:24:41.790Z,1029.62
2019-03-29T04:25:41.780Z,1029.66
2019-03-29T04:26:41.759Z,1029.63
2019-03-29T04:27:41.730Z,1029.62
2019-03-29T04:28:41.728Z,1029.66
2019-03-29T04:29:41.688Z,1029.64
2019-03-29T04:30:41.673Z,1029.66
2019-03-29T04:31:41.655Z,1029.67
2019-03-29T04:32:41.662Z,1029.63
2019-03-29T04:33:41.608Z,1029.63
2019-03-29T04:34:41.589Z,1029.68
2019-03-29T04:35:41.578Z,1029.64
2019-03-29T04:36:41.546Z,1029.64
2019-03-29T04:37:41.529Z,1029.66
2019-03-29T04:38:41.531Z,1029.61
2019-03-29T04:39:41.480Z,1029.66
2019-03-29T04:40:41.469Z,1029.64
2019-03-29T04:41:41.448Z,1029.60
2019-03-29T04:42:41.440Z,1029.64
2019-03-29T04:43:41.422Z,1029.62
2019-03-29T04:44:42.035Z,1029.62
2019-03-29T04:45:41.368Z,1029.66
2019-03-29T04:46:41.347Z,1029.62
2019-03-29T04:47:41.313Z,1029.61
2019-03-29T04:48:41.328Z,1029.67
2019-03-29T04:49:41.281Z,1029.61
2019-03-29T04:50:41.258Z,1029.63
2019-03-29T04:51:41.239Z,1029.60
2019-03-29T04:52:41.219Z,1029.63
2019-03-29T04:53:41.213Z,1029.62
2019-03-29T04:54:41.176Z,1029.59
2019-03-29T04:55:41.168Z,1029.62
2019-03-29T04:56:41.152Z,1029.56
2019-03-29T04:57:41.113Z,1029.58
2019-03-29T04:58:41.098Z,1029.59
2019-03-29T04:59:41.072Z,1029.57
2019-03-29T05:00:41.065Z,1029.58
2019-03-29T05:01:41.047Z,1029.60
2019-03-29T05:02:41.018Z,1029.60
2019-03-29T05:03:40.988Z,1029.60
2019-03-29T05:04:40.977Z,1029.59
2019-03-29T05:05:40.967Z,1029.61
2019-03-29T05:06:40.943Z,1029.59
2019-03-29T05:07:41.551Z,1029.59
2019-03-29T05:08:40.888Z,1029.57
2019-03-29T05:09:40.869Z,1029.55
2019-03-29T05:10:40.846Z,1029.55
2019-03-29T05:11:40.821Z,1029.58
2019-03-29T05:12:40.826Z,1029.60
2019-03-29T05:15:23.005Z,1029.51
2019-03-29T05:16:22.983Z,1029.53
2019-03-29T05:17:22.964Z,1029.52
2019-03-29T05:18:22.967Z,1029.52
2019-03-29T05:19:22.935Z,1029.52
2019-03-29T05:20:22.905Z,1029.51
2019-03-29T05:21:22.886Z,1029.47
2019-03-29T05:22:22.865Z,1029.54
2019-03-29T05:23:22.860Z,1029.50
2019-03-29T05:24:22.824Z,1029.50
2019-03-29T05:25:22.809Z,1029.50
2019-03-29T05:26:25.322Z,1029.47
2019-03-29T05:27:22.761Z,1029.49
2019-03-29T05:28:22.740Z,1029.49
2019-03-29T05:29:22.734Z,1029.45
2019-03-29T05:30:22.698Z,1029.49
2019-03-29T05:31:22.693Z,1029.46
2019-03-29T05:32:22.675Z,1029.42
2019-03-29T05:33:22.633Z,1029.48
2019-03-29T05:34:22.618Z,1029.42
2019-03-29T05:35:22.593Z,1029.46
2019-03-29T05:36:22.571Z,1029.44
2019-03-29T05:37:22.588Z,1029.45
2019-03-29T05:38:22.533Z,1029.44
2019-03-29T05:39:22.505Z,1029.45
2019-03-29T05:40:34.336Z,1029.44
2019-03-29T05:41:22.471Z,1029.44
2019-03-29T05:42:22.465Z,1029.44
2019-03-29T05:43:22.422Z,1029.44
2019-03-29T05:44:22.406Z,1029.42
2019-03-29T05:45:22.389Z,1029.42
2019-03-29T05:46:22.381Z,1029.40
2019-03-29T05:47:22.343Z,1029.40
2019-03-29T05:48:22.329Z,1029.45
2019-03-29T05:49:22.310Z,1029.46
2019-03-29T05:50:22.301Z,1029.44
2019-03-29T05:51:22.265Z,1029.43
2019-03-29T05:52:22.260Z,1029.41
2019-03-29T05:53:22.234Z,1029.42
2019-03-29T05:54:22.204Z,1029.36
2019-03-29T05:55:32.112Z,1029.41
2019-03-29T05:56:22.160Z,1029.40
2019-03-29T05:57:22.142Z,1029.45
2019-03-29T05:58:22.141Z,1029.42
2019-03-29T05:59:22.101Z,1029.42
2019-03-29T06:00:22.076Z,1029.42
2019-03-29T06:01:22.060Z,1029.44
2019-03-29T06:02:22.042Z,1029.44
2019-03-29T06:03:22.090Z,1029.43
2019-03-29T06:04:21.997Z,1029.44
2019-03-29T06:05:21.978Z,1029.46
2019-03-29T06:06:22.026Z,1029.44
2019-03-29T06:07:21.934Z,1029.48
2019-03-29T06:08:21.919Z,1029.42
2019-03-29T06:09:21.923Z,1029.42
2019-03-29T06:10:21.871Z,1029.44
2019-03-29T06:11:21.850Z,1029.46
2019-03-29T06:12:21.844Z,1029.42
2019-03-29T06:13:21.812Z,1029.39
2019-03-29T06:14:21.816Z,1029.40
2019-03-29T06:15:21.773Z,1029.37
2019-03-29T06:16:21.750Z,1029.38
2019-03-29T06:17:21.730Z,1029.39
2019-03-29T06:18:21.711Z,1029.39
2019-03-29T06:19:21.691Z,1029.39
2019-03-29T06:20:21.696Z,1029.41
2019-03-29T06:21:23.048Z,1029.37
2019-03-29T06:22:21.628Z,1029.40
2019-03-29T06:23:21.609Z,1029.40
2019-03-29T06:24:21.591Z,1029.44
2019-03-29T06:25:21.586Z,1029.37
2019-03-29T06:26:21.554Z,1029.43
2019-03-29T06:27:21.527Z,1029.41
2019-03-29T06:28:21.508Z,1029.42
2019-03-29T06:29:21.483Z,1029.43
2019-03-29T06:30:21.468Z,1029.40
2019-03-29T06:31:21.469Z,1029.41
2019-03-29T06:32:21.430Z,1029.43
2019-03-29T06:33:21.400Z,1029.43
2019-03-29T06:34:21.387Z,1029.43
2019-03-29T06:35:21.384Z,1029.41
2019-03-29T06:36:21.361Z,1029.43
2019-03-29T06:37:21.327Z,1029.45
2019-03-29T06:38:21.316Z,1029.47
2019-03-29T06:39:21.476Z,1029.44
2019-03-29T06:40:21.264Z,1029.45
2019-03-29T06:41:21.241Z,1029.47
2019-03-29T06:42:21.220Z,1029.47
2019-03-29T06:43:21.201Z,1029.50
2019-03-29T06:44:21.199Z,1029.46
2019-03-29T06:45:21.160Z,1029.46
2019-03-29T06:46:21.140Z,1029.46
2019-03-29T06:47:21.116Z,1029.46
2019-03-29T06:48:21.102Z,1029.43
2019-03-29T06:49:21.079Z,1029.45
2019-03-29T06:50:21.073Z,1029.44
2019-03-29T06:51:21.041Z,1029.50
2019-03-29T06:52:21.045Z,1029.49
2019-03-29T06:53:21.021Z,1029.46
2019-03-29T06:54:21.015Z,1029.47
2019-03-29T06:55:20.963Z,1029.47
2019-03-29T06:56:20.941Z,1029.46
2019-03-29T06:57:21.066Z,1029.44
2019-03-29T06:58:20.903Z,1029.42
2019-03-29T06:59:20.876Z,1029.41
2019-03-29T07:00:20.870Z,1029.42
2019-03-29T07:01:21.563Z,1029.40
2019-03-29T07:02:20.816Z,1029.44
2019-03-29T07:03:20.793Z,1029.43
2019-03-29T07:04:20.779Z,1029.47
2019-03-29T07:05:20.751Z,1029.45
2019-03-29T07:06:20.754Z,1029.41
2019-03-29T07:07:20.715Z,1029.43
2019-03-29T07:08:20.707Z,1029.42
2019-03-29T07:09:20.677Z,1029.45
2019-03-29T07:10:20.658Z,1029.44
2019-03-29T07:11:20.641Z,1029.42
2019-03-29T07:12:20.641Z,1029.45
2019-03-29T07:13:20.607Z,1029.45
2019-03-29T07:14:20.591Z,1029.45
2019-03-29T07:15:20.553Z,1029.41
2019-03-29T07:16:20.541Z,1029.43
2019-03-29T07:17:20.520Z,1029.42
2019-03-29T07:18:20.497Z,1029.41
2019-03-29T07:19:20.492Z,1029.42
2019-03-29T07:20:20.472Z,1029.42
2019-03-29T07:21:21.791Z,1029.43
2019-03-29T07:22:20.415Z,1029.45
2019-03-29T07:23:20.397Z,1029.40
2019-03-29T07:24:20.380Z,1029.41
2019-03-29T07:25:20.378Z,1029.42
2019-03-29T07:26:20.338Z,1029.43
2019-03-29T07:27:20.336Z,1029.42
2019-03-29T07:28:20.301Z,1029.39
2019-03-29T07:29:20.298Z,1029.37
2019-03-29T07:30:20.286Z,1029.39
2019-03-29T07:31:20.240Z,1029.38
2019-03-29T07:32:20.217Z,1029.43
2019-03-29T07:33:20.196Z,1029.39
2019-03-29T07:34:20.195Z,1029.37
2019-03-29T07:35:20.176Z,1029.40
2019-03-29T07:36:20.139Z,1029.44
2019-03-29T07:37:20.126Z,1029.41
2019-03-29T07:38:20.103Z,1029.43
2019-03-29T07:39:20.081Z,1029.36
2019-03-29T07:40:20.061Z,1029.38
2019-03-29T07:41:30.960Z,1029.36
2019-03-29T07:42:20.024Z,1029.38
2019-03-29T07:43:20.010Z,1029.37
2019-03-29T07:44:19.981Z,1029.40
2019-03-29T07:45:19.963Z,1029.41
2019-03-29T07:46:19.970Z,1029.41
2019-03-29T07:47:19.923Z,1029.41
2019-03-29T07:48:19.928Z,1029.43
2019-03-29T07:49:19.886Z,1029.43
2019-03-29T07:50:19.865Z,1029.45
2019-03-29T07:51:19.854Z,1029.44
2019-03-29T07:52:19.825Z,1029.46
2019-03-29T07:53:19.825Z,1029.47
2019-03-29T07:54:19.785Z,1029.45
2019-03-29T07:55:19.768Z,1029.43
2019-03-29T07:56:19.810Z,1029.46
2019-03-29T07:57:19.729Z,1029.45
2019-03-29T07:58:19.709Z,1029.44
2019-03-29T07:59:19.711Z,1029.46
2019-03-29T08:00:20.576Z,1029.45
2019-03-29T08:01:19.652Z,1029.50
2019-03-29T08:02:19.686Z,1029.49
2019-03-29T08:03:21.348Z,1029.49
2019-03-29T08:04:21.666Z,1029.50
2019-03-29T08:05:19.588Z,1029.47
2019-03-29T08:06:19.561Z,1029.49
2019-03-29T08:07:27.060Z,1029.45
2019-03-29T08:08:24.248Z,1029.50
2019-03-29T08:09:22.740Z,1029.56
2019-03-29T08:10:27.452Z,1029.52
2019-03-29T08:11:26.108Z,1029.54
2019-03-29T08:12:20.125Z,1029.52
2019-03-29T08:13:19.421Z,1029.50
2019-03-29T08:14:19.401Z,1029.51
2019-03-29T08:15:19.385Z,1029.48
2019-03-29T08:16:19.412Z,1029.50
2019-03-29T08:17:19.339Z,1029.50
2019-03-29T08:18:19.325Z,1029.48
2019-03-29T08:19:19.306Z,1029.46
2019-03-29T08:20:43.878Z,1029.49
2019-03-29T08:21:19.264Z,1029.42
2019-03-29T08:22:19.271Z,1029.44
2019-03-29T08:23:19.234Z,1029.40
2019-03-29T08:24:19.207Z,1029.44
2019-03-29T08:25:19.192Z,1029.38
2019-03-29T08:26:19.180Z,1029.42
2019-03-29T08:27:19.190Z,1029.39
2019-03-29T08:28:19.152Z,1029.38
2019-03-29T08:29:19.165Z,1029.43
2019-03-29T08:30:19.097Z,1029.39
2019-03-29T08:31:19.093Z,1029.38
2019-03-29T08:32:19.061Z,1029.40
2019-03-29T08:33:19.043Z,1029.35
2019-03-29T08:34:19.040Z,1029.39
2019-03-29T08:35:19.013Z,1029.35
2019-03-29T08:36:18.991Z,1029.35
2019-03-29T08:37:18.983Z,1029.36
2019-03-29T08:38:18.951Z,1029.36
2019-03-29T08:39:27.947Z,1029.34
2019-03-29T08:40:18.908Z,1029.36
2019-03-29T08:41:18.898Z,1029.31
2019-03-29T08:42:19.036Z,1029.29
2019-03-29T08:43:19.647Z,1029.28
2019-03-29T08:44:18.859Z,1029.29
2019-03-29T08:45:18.815Z,1029.36
2019-03-29T08:46:18.803Z,1029.31
2019-03-29T08:47:18.799Z,1029.31
2019-03-29T08:48:18.759Z,1029.26
2019-03-29T08:49:18.749Z,1029.28
2019-03-29T08:50:18.792Z,1029.29
2019-03-29T08:51:18.710Z,1029.28
2019-03-29T08:52:18.693Z,1029.32
2019-03-29T08:53:18.674Z,1029.26
2019-03-29T08:54:18.656Z,1029.23
2019-03-29T08:55:18.636Z,1029.27
2019-03-29T08:56:18.647Z,1029.28
2019-03-29T08:57:18.606Z,1029.24
2019-03-29T08:58:18.584Z,1029.27
2019-03-29T08:59:18.567Z,1029.23
2019-03-29T09:00:18.547Z,1029.25
2019-03-29T09:01:19.551Z,1029.23
2019-03-29T09:02:18.543Z,1029.25
2019-03-29T09:03:18.494Z,1029.27
2019-03-29T09:04:21.593Z,1029.22
2019-03-29T09:05:18.477Z,1029.22
2019-03-29T09:06:18.443Z,1029.24
2019-03-29T09:07:18.416Z,1029.19
2019-03-29T09:08:19.121Z,1029.14
2019-03-29T09:09:18.390Z,1029.11
2019-03-29T09:10:18.389Z,1029.22
2019-03-29T09:11:18.357Z,1029.17
2019-03-29T09:12:18.336Z,1029.15
2019-03-29T09:13:18.317Z,1029.14
2019-03-29T09:14:18.297Z,1029.13
2019-03-29T09:15:18.303Z,1029.14
2019-03-29T09:16:18.272Z,1029.10
2019-03-29T09:17:18.246Z,1029.15
2019-03-29T09:18:18.229Z,1029.15
2019-03-29T09:19:18.222Z,1029.18
2019-03-29T09:20:18.196Z,1029.13
2019-03-29T09:21:18.215Z,1029.18
2019-03-29T09:24:00.055Z,1029.19
2019-03-29T09:25:00.043Z,1029.15
2019-03-29T09:26:00.019Z,1029.18
2019-03-29T09:27:00.188Z,1029.13
2019-03-29T09:27:59.990Z,1029.15
2019-03-29T09:28:59.974Z,1029.12
2019-03-29T09:29:59.959Z,1029.18
2019-03-29T09:30:59.950Z,1029.11
2019-03-29T09:32:00.024Z,1029.18
2019-03-29T09:32:59.938Z,1029.08
2019-03-29T09:33:59.905Z,1029.11
2019-03-29T09:34:59.889Z,1029.11
2019-03-29T09:35:59.875Z,1029.05
2019-03-29T09:37:00.222Z,1029.10
2019-03-29T09:37:59.852Z,1029.03
2019-03-29T09:38:59.857Z,1029.09
2019-03-29T09:39:59.824Z,1029.09
2019-03-29T09:40:59.815Z,1029.07
2019-03-29T09:41:59.807Z,1029.10
2019-03-29T09:43:07.054Z,1029.07
2019-03-29T09:43:59.773Z,1029.04
2019-03-29T09:44:59.781Z,1029.06
2019-03-29T09:46:03.160Z,1029.03
2019-03-29T09:46:59.740Z,1029.03
2019-03-29T09:47:59.743Z,1029.07
2019-03-29T09:48:59.738Z,1029.04
2019-03-29T09:49:59.732Z,1029.04
2019-03-29T09:50:59.714Z,1029.01
2019-03-29T09:51:59.750Z,1029.00
2019-03-29T09:53:01.413Z,1028.99
2019-03-29T09:53:59.684Z,1029.01
2019-03-29T09:54:59.679Z,1028.96
2019-03-29T09:55:59.663Z,1028.95
2019-03-29T09:56:59.639Z,1028.96
2019-03-29T09:57:59.641Z,1028.87
2019-03-29T09:58:59.625Z,1028.90
2019-03-29T09:59:59.629Z,1028.93
2019-03-29T10:00:59.599Z,1028.89
2019-03-29T10:01:59.592Z,1028.90
2019-03-29T10:02:59.583Z,1028.86
2019-03-29T10:03:59.573Z,1028.87
2019-03-29T10:04:59.584Z,1028.87
2019-03-29T10:05:59.610Z,1028.86
2019-03-29T10:06:59.548Z,1028.82
2019-03-29T10:07:59.536Z,1028.84
2019-03-29T10:08:59.540Z,1028.83
2019-03-29T10:09:59.549Z,1028.81
2019-03-29T10:10:59.518Z,1028.83
2019-03-29T10:11:59.506Z,1028.82
2019-03-29T10:12:59.498Z,1028.74
2019-03-29T10:13:59.494Z,1028.74
2019-03-29T10:14:59.486Z,1028.71
2019-03-29T10:15:59.499Z,1028.69
2019-03-29T10:16:59.491Z,1028.73
2019-03-29T10:17:59.474Z,1028.67
2019-03-29T10:18:59.451Z,1028.66
2019-03-29T10:19:59.443Z,1028.69
2019-03-29T10:20:59.439Z,1028.69
2019-03-29T10:21:59.424Z,1028.65
2019-03-29T10:22:59.442Z,1028.63
2019-03-29T10:23:59.412Z,1028.65
2019-03-29T10:25:02.062Z,1028.64
2019-03-29T10:25:59.408Z,1028.66
2019-03-29T10:26:59.387Z,1028.61
2019-03-29T10:27:59.379Z,1028.61
2019-03-29T10:28:59.405Z,1028.59
2019-03-29T10:29:59.367Z,1028.56
2019-03-29T10:30:59.358Z,1028.55
2019-03-29T10:31:59.357Z,1028.51
2019-03-29T10:32:59.349Z,1028.52
2019-03-29T10:33:59.431Z,1028.52
2019-03-29T10:34:59.367Z,1028.48
2019-03-29T10:35:59.359Z,1028.46
2019-03-29T10:36:59.329Z,1028.43
2019-03-29T10:37:59.321Z,1028.47
2019-03-29T10:38:59.316Z,1028.44
2019-03-29T10:39:59.302Z,1028.43
2019-03-29T10:40:59.301Z,1028.41
2019-03-29T10:41:59.390Z,1028.37
2019-03-29T10:42:59.288Z,1028.33
2019-03-29T10:43:59.282Z,1028.35
2019-03-29T10:44:59.281Z,1028.35
2019-03-29T10:45:59.268Z,1028.34
2019-03-29T10:46:59.256Z,1028.28
2019-03-29T10:47:59.281Z,1028.26
2019-03-29T10:48:59.253Z,1028.24
2019-03-29T10:49:59.244Z,1028.20
2019-03-29T10:50:59.247Z,1028.16
2019-03-29T10:51:59.233Z,1028.21
2019-03-29T10:52:59.227Z,1028.20
2019-03-29T10:53:59.244Z,1028.15
2019-03-29T10:54:59.216Z,1028.16
2019-03-29T10:55:59.214Z,1028.19
2019-03-29T10:56:59.205Z,1028.19
2019-03-29T10:57:59.192Z,1028.18
2019-03-29T10:58:59.188Z,1028.17
2019-03-29T10:59:59.202Z,1028.17
2019-03-29T11:00:59.174Z,1028.16
2019-03-29T11:01:59.170Z,1028.15
2019-03-29T11:02:59.164Z,1028.10
2019-03-29T11:03:59.158Z,1028.10
2019-03-29T11:04:59.166Z,1028.07
2019-03-29T11:05:59.185Z,1028.11
2019-03-29T11:06:59.138Z,1028.10
2019-03-29T11:07:59.163Z,1028.04
2019-03-29T11:08:59.138Z,1028.02
2019-03-29T11:09:59.161Z,1028.01
2019-03-29T11:10:59.128Z,1028.02
2019-03-29T11:11:59.120Z,1028.04
2019-03-29T11:13:11.739Z,1027.99
2019-03-29T11:13:59.126Z,1027.98
2019-03-29T11:14:59.104Z,1028.00
2019-03-29T11:15:59.105Z,1027.98
2019-03-29T11:16:59.096Z,1028.00
2019-03-29T11:17:59.095Z,1027.93
2019-03-29T11:18:59.106Z,1027.93
2019-03-29T11:19:59.081Z,1027.94
2019-03-29T11:20:59.105Z,1027.93
2019-03-29T11:21:59.068Z,1027.88
2019-03-29T11:22:59.065Z,1027.88
2019-03-29T11:23:59.064Z,1027.89
2019-03-29T11:24:59.062Z,1027.90
2019-03-29T11:25:59.056Z,1027.89
2019-03-29T11:26:59.083Z,1027.86
2019-03-29T11:27:59.059Z,1027.84
2019-03-29T11:28:59.043Z,1027.79
2019-03-29T11:29:59.034Z,1027.81
2019-03-29T11:30:59.039Z,1027.84
2019-03-29T11:31:59.030Z,1027.79
2019-03-29T11:32:59.044Z,1027.77
2019-03-29T11:33:59.039Z,1027.81
2019-03-29T11:34:59.018Z,1027.77
2019-03-29T11:35:59.013Z,1027.83
2019-03-29T11:36:59.013Z,1027.79
2019-03-29T11:37:59.007Z,1027.77
2019-03-29T11:38:59.023Z,1027.72
2019-03-29T11:39:59.000Z,1027.70
2019-03-29T11:40:58.999Z,1027.71
2019-03-29T11:41:59.007Z,1027.70
2019-03-29T11:42:58.985Z,1027.70
2019-03-29T11:43:58.987Z,1027.69
2019-03-29T11:45:04.250Z,1027.65
2019-03-29T11:45:58.977Z,1027.67
2019-03-29T11:46:58.975Z,1027.69
2019-03-29T11:48:08.187Z,1027.65
2019-03-29T11:48:58.968Z,1027.65
2019-03-29T11:49:58.967Z,1027.61
2019-03-29T11:50:58.979Z,1027.61
2019-03-29T11:51:58.955Z,1027.57
2019-03-29T11:52:58.952Z,1027.50
2019-03-29T11:53:58.949Z,1027.46
2019-03-29T11:54:58.964Z,1027.50
2019-03-29T11:55:58.943Z,1027.49
2019-03-29T11:56:58.943Z,1027.47
2019-03-29T11:57:58.954Z,1027.48
2019-03-29T11:58:58.931Z,1027.42
2019-03-29T11:59:58.956Z,1027.36
2019-03-29T12:00:58.948Z,1027.34
2019-03-29T12:01:58.942Z,1027.35
2019-03-29T12:02:58.922Z,1027.28
2019-03-29T12:03:58.943Z,1027.27
2019-03-29T12:04:58.917Z,1027.29
2019-03-29T12:05:58.914Z,1027.25
2019-03-29T12:06:58.957Z,1027.30
2019-03-29T12:07:58.904Z,1027.28
2019-03-29T12:08:58.925Z,1027.29
2019-03-29T12:09:58.901Z,1027.23
2019-03-29T12:10:58.896Z,1027.23
2019-03-29T12:11:58.893Z,1027.21